Time;durP1;ratioP1;P1;durP2;ratioP2;P2;SDS_P1;SDS_P2;PMS_P1;PMS_P2;Temp;Humidity;BMP_temperature;BMP_pressure;BME280_temperature;BME280_humidity;BME280_pressure;Samples;Min_cycle;Max_cycle;Signal;HPM_P1;HPM_P2
2023/01/06 00:01:21;;;;;;;;;;;;;;;-143.48;96.08;118439.88;5056291;28;20400;-29
2023/01/06 00:03:48;;;;;;;;;;;;;;;-143.48;95.88;118439.88;5055785;28;19920;-29
2023/01/06 00:06:14;;;;;;;;;;;;;;;-143.48;95.60;118439.88;5056296;28;20409;-29
2023/01/06 00:08:40;;;;;;;;;;;;;;;-143.48;95.46;118439.88;5038102;28;20352;-29
2023/01/06 00:11:11;;;;;;;;;;;;;;;-143.48;95.33;118439.88;5038023;28;19960;-29
2023/01/06 00:13:36;;;;;;;;;;;;;;;-143.48;94.81;118439.88;5056474;28;19959;-29
2023/01/06 00:16:12;;;;;;;;;;;;;;;-143.48;94.81;118439.88;5021404;28;19912;-30
2023/01/06 00:18:38;;;;;;;;;;;;;;;-143.48;94.73;118439.88;5056010;28;19960;-29
2023/01/06 00:21:03;;;;;;;;;;;;;;;-143.48;94.38;118439.88;5055790;28;19948;-30
2023/01/06 00:23:29;;;;;;;;;;;;;;;-143.48;93.94;118439.88;5056165;28;19913;-29
2023/01/06 00:25:54;;;;;;;;;;;;;;;-143.48;93.66;118439.88;5055533;28;19955;-29
2023/01/06 00:28:19;;;;;;;;;;;;;;;-143.48;93.77;118439.88;5055426;28;19912;-30
2023/01/06 00:30:44;;;;;;;;;;;;;;;-143.48;93.56;118439.88;5055999;28;20347;-29
2023/01/06 00:33:10;;;;;;;;;;;;;;;-143.48;93.16;118439.88;5055709;28;19914;-29
2023/01/06 00:35:35;;;;;;;;;;;;;;;-143.48;93.40;118439.88;5055446;28;19908;-30
2023/01/06 00:38:00;;;;;;;;;;;;;;;-143.48;93.45;118439.88;5037322;28;19908;-29
2023/01/06 00:40:26;;;;;;;;;;;;;;;-143.48;93.79;118439.88;5055317;28;19952;-29
2023/01/06 00:42:51;;;;;;;;;;;;;;;-143.48;93.84;118439.88;5054948;28;19963;-29
2023/01/06 00:45:16;;;;;;;;;;;;;;;-143.48;94.05;118439.88;5055745;28;19909;-29
2023/01/06 00:47:41;;;;;;;;;;;;;;;-143.48;94.31;118439.88;5055436;28;19999;-29
2023/01/06 00:50:06;;;;;;;;;;;;;;;-143.48;94.13;118439.88;5055077;28;19909;-29
2023/01/06 00:52:33;;;;;;;;;;;;;;;-143.48;94.35;118439.88;5037018;28;19915;-29
2023/01/06 00:54:58;;;;;;;;;;;;;;;-143.48;94.72;118439.88;5054913;28;19916;-30
2023/01/06 00:57:23;;;;;;;;;;;;;;;-143.48;94.47;118439.88;5055198;28;19913;-29
2023/01/06 00:59:48;;;;;;;;;;;;;;;-143.48;94.85;118439.88;5055085;28;19908;-29
2023/01/06 01:02:13;;;;;;;;;;;;;;;-143.48;95.26;118439.88;5054622;28;19929;-29
2023/01/06 01:04:39;;;;;;;;;;;;;;;-143.48;95.02;118439.88;5054771;28;19909;-29
2023/01/06 01:07:04;;;;;;;;;;;;;;;-143.48;94.56;118439.88;5055344;28;19973;-29
2023/01/06 01:09:30;;;;;;;;;;;;;;;-143.48;94.80;118439.88;5054716;28;19916;-29
2023/01/06 01:12:11;;;;;;;;;;;;;;;-143.48;95.15;118439.88;5054594;28;19975;-29
2023/01/06 01:14:38;;;;;;;;;;;;;;;-143.48;95.02;118439.88;5054924;28;19923;-29
2023/01/06 01:17:03;;;;;;;;;;;;;;;-143.48;95.26;118439.88;5055144;28;19940;-29
2023/01/06 01:19:28;;;;;;;;;;;;;;;-143.48;95.65;118439.88;5054491;28;19935;-30
2023/01/06 01:21:54;;;;;;;;;;;;;;;-143.48;95.52;118439.88;5055018;28;19971;-29
2023/01/06 01:24:19;;;;;;;;;;;;;;;-143.48;95.44;118439.88;5054864;28;20263;-29
2023/01/06 01:26:44;;;;;;;;;;;;;;;-143.48;94.74;118439.88;5054694;28;19909;-30
2023/01/06 01:29:11;;;;;;;;;;;;;;;-143.48;94.92;118439.88;5054350;28;19908;-30
2023/01/06 01:31:36;;;;;;;;;;;;;;;-143.48;94.38;118439.88;5036503;28;19914;-29
2023/01/06 01:34:01;;;;;;;;;;;;;;;-143.48;94.26;118439.88;5054171;28;19995;-30
2023/01/06 01:36:27;;;;;;;;;;;;;;;-143.48;93.66;118439.88;5054762;28;19923;-29
2023/01/06 01:38:54;;;;;;;;;;;;;;;-143.48;93.56;118439.88;5054413;28;19959;-29
2023/01/06 01:41:21;;;;;;;;;;;;;;;-143.48;93.61;118439.88;5054140;28;19908;-29
2023/01/06 01:43:46;;;;;;;;;;;;;;;-143.48;93.43;118439.88;5054327;28;20278;-29
2023/01/06 01:46:13;;;;;;;;;;;;;;;-143.48;93.35;118439.88;5054064;28;19962;-29
2023/01/06 01:48:39;;;;;;;;;;;;;;;-143.48;93.22;118439.88;5054061;28;20019;-30
2023/01/06 01:51:10;;;;;;;;;;;;;;;-143.48;92.81;118439.88;5053733;28;19909;-29
2023/01/06 01:53:41;;;;;;;;;;;;;;;-143.48;92.60;118439.88;5053779;28;19908;-29
2023/01/06 01:56:08;;;;;;;;;;;;;;;-143.48;92.22;118439.88;5051855;28;19935;-30
2023/01/06 01:58:37;;;;;;;;;;;;;;;-143.48;91.93;118439.88;5051860;28;20050;-30
2023/01/06 02:01:03;;;;;;;;;;;;;;;-143.48;92.15;118439.88;5051999;28;19909;-29
2023/01/06 02:03:28;;;;;;;;;;;;;;;-143.48;92.20;118439.88;5051600;28;19916;-29
2023/01/06 02:05:58;;;;;;;;;;;;;;;-143.48;91.93;118439.88;5050871;28;19928;-30
2023/01/06 02:08:37;;;;;;;;;;;;;;;-143.48;92.38;118439.88;5051705;28;19908;-29
2023/01/06 02:11:02;;;;;;;;;;;;;;;-143.48;92.49;118439.88;5051698;28;19951;-30
2023/01/06 02:13:29;;;;;;;;;;;;;;;-143.48;91.80;118439.88;5051707;28;19908;-29
2023/01/06 02:16:20;;;;;;;;;;;;;;;-143.48;91.41;118439.88;5051610;28;19912;-29
2023/01/06 02:18:56;;;;;;;;;;;;;;;-143.48;91.42;118439.88;5047461;28;19909;-29
2023/01/06 02:21:37;;;;;;;;;;;;;;;-143.48;91.25;118439.88;5052661;28;19915;-29
2023/01/06 02:24:22;;;;;;;;;;;;;;;-143.48;90.70;118439.88;5052316;28;20364;-29
2023/01/06 02:27:16;;;;;;;;;;;;;;;-143.48;90.56;118439.88;5052933;28;20364;-29
2023/01/06 02:29:44;;;;;;;;;;;;;;;-143.48;89.89;118439.88;5052397;28;19915;-29
2023/01/06 02:32:15;;;;;;;;;;;;;;;-143.48;89.78;118439.88;5052717;28;19963;-29
2023/01/06 02:34:59;;;;;;;;;;;;;;;-143.48;90.02;118439.88;5052835;28;19995;-29
2023/01/06 02:37:46;;;;;;;;;;;;;;;-143.48;90.14;118439.88;5052778;28;19913;-29
2023/01/06 02:40:24;;;;;;;;;;;;;;;-143.48;89.78;118439.88;5053600;28;20286;-29
2023/01/06 02:42:52;;;;;;;;;;;;;;;-143.48;89.29;118439.88;5053586;28;20415;-29
2023/01/06 02:45:23;;;;;;;;;;;;;;;-143.48;89.23;118439.88;5053963;28;20000;-29
2023/01/06 02:47:57;;;;;;;;;;;;;;;-143.48;89.65;118439.88;5053387;28;19909;-30
2023/01/06 02:50:22;;;;;;;;;;;;;;;-143.48;89.57;118439.88;5053606;28;19909;-29
2023/01/06 02:52:50;;;;;;;;;;;;;;;-143.48;89.94;118439.88;5053289;28;20378;-29
2023/01/06 02:55:22;;;;;;;;;;;;;;;-143.48;89.71;118439.88;5053338;28;19909;-29
2023/01/06 02:57:47;;;;;;;;;;;;;;;-143.48;89.11;118439.88;5053257;28;19951;-29
2023/01/06 03:00:22;;;;;;;;;;;;;;;-143.48;89.10;118439.88;5053782;28;19913;-29
2023/01/06 03:02:52;;;;;;;;;;;;;;;-143.48;89.20;118439.88;5053209;28;19916;-29
2023/01/06 03:05:17;;;;;;;;;;;;;;;-143.48;88.58;118439.88;5054098;28;19977;-29
2023/01/06 03:07:44;;;;;;;;;;;;;;;-143.48;88.56;118439.88;5057029;28;19996;-29
2023/01/06 03:10:12;;;;;;;;;;;;;;;-143.48;88.95;118439.88;5056995;28;19988;-29
2023/01/06 03:13:00;;;;;;;;;;;;;;;-143.48;87.97;118439.88;5056876;28;20055;-29
2023/01/06 03:15:25;;;;;;;;;;;;;;;-143.48;87.88;118439.88;5056943;28;20283;-29
2023/01/06 03:17:51;;;;;;;;;;;;;;;-143.48;88.08;118439.88;5057428;28;19909;-29
2023/01/06 03:20:16;;;;;;;;;;;;;;;-143.48;88.13;118439.88;5057064;28;19909;-29
2023/01/06 03:22:42;;;;;;;;;;;;;;;-143.48;87.73;118439.88;5056689;28;19925;-29
2023/01/06 03:25:08;;;;;;;;;;;;;;;-143.48;87.13;118439.88;5057297;28;19909;-29
2023/01/06 03:27:33;;;;;;;;;;;;;;;-143.48;87.09;118439.88;5057189;28;20254;-29
2023/01/06 03:29:59;;;;;;;;;;;;;;;-143.48;86.84;118439.88;5056667;28;20326;-29
2023/01/06 03:32:27;;;;;;;;;;;;;;;-143.48;87.19;118439.88;5056935;28;19909;-29
2023/01/06 03:34:55;;;;;;;;;;;;;;;-143.48;86.66;118439.88;5056577;28;20313;-30
2023/01/06 03:37:21;;;;;;;;;;;;;;;-143.48;86.55;118439.88;5056550;28;19912;-29
2023/01/06 03:39:54;;;;;;;;;;;;;;;-143.48;86.14;118439.88;5038635;28;19915;-29
2023/01/06 03:45:36;;;;;;;;;;;;;;;-143.48;85.38;118439.88;5056993;28;19959;-29
2023/01/06 03:48:09;;;;;;;;;;;;;;;-143.48;85.91;118439.88;5056602;28;19958;-29
2023/01/06 03:50:37;;;;;;;;;;;;;;;-143.48;85.52;118439.88;5056523;28;19952;-29
2023/01/06 03:53:15;;;;;;;;;;;;;;;-143.48;85.12;118439.88;5056178;28;20011;-29
2023/01/06 03:55:43;;;;;;;;;;;;;;;-143.48;84.70;118439.88;5056119;28;19963;-29
2023/01/06 03:58:09;;;;;;;;;;;;;;;-143.48;84.47;118439.88;5056143;28;19923;-29
2023/01/06 04:00:36;;;;;;;;;;;;;;;-143.48;84.89;118439.88;5056076;28;19909;-29
2023/01/06 04:03:02;;;;;;;;;;;;;;;-143.48;84.73;118439.88;5055736;28;19971;-29
2023/01/06 04:05:27;;;;;;;;;;;;;;;-143.48;84.24;118439.88;5038916;28;19956;-29
2023/01/06 04:07:53;;;;;;;;;;;;;;;-143.48;84.30;118439.88;5055893;28;19908;-29
2023/01/06 04:10:19;;;;;;;;;;;;;;;-143.48;83.79;118439.88;5055837;28;19908;-29
2023/01/06 04:12:44;;;;;;;;;;;;;;;-143.48;83.95;118439.88;5056408;28;19982;-29
2023/01/06 04:15:28;;;;;;;;;;;;;;;-143.48;83.97;118439.88;5055859;28;19908;-29
2023/01/06 04:17:53;;;;;;;;;;;;;;;-143.48;83.98;118439.88;5037316;28;19909;-29
2023/01/06 04:20:20;;;;;;;;;;;;;;;-143.48;84.14;118439.88;5055718;28;20009;-29
2023/01/06 04:22:46;;;;;;;;;;;;;;;-143.48;84.51;118439.88;5055523;28;19935;-29
2023/01/06 04:25:11;;;;;;;;;;;;;;;-143.48;84.11;118439.88;5055668;28;19909;-29
2023/01/06 04:27:37;;;;;;;;;;;;;;;-143.48;84.62;118439.88;5055559;28;19958;-29
2023/01/06 04:30:03;;;;;;;;;;;;;;;-143.48;84.87;118439.88;5055456;28;19915;-30
2023/01/06 04:32:28;;;;;;;;;;;;;;;-143.48;84.53;118439.88;5055707;28;19974;-29
2023/01/06 04:34:53;;;;;;;;;;;;;;;-143.48;85.23;118439.88;5055466;28;19916;-29
2023/01/06 04:37:18;;;;;;;;;;;;;;;-143.48;85.10;118439.88;5055417;28;19908;-29
2023/01/06 04:39:44;;;;;;;;;;;;;;;-143.48;85.40;118439.88;5055326;28;20367;-29
2023/01/06 04:42:09;;;;;;;;;;;;;;;-143.48;85.67;118439.88;5055324;28;19908;-29
2023/01/06 04:44:34;;;;;;;;;;;;;;;-143.48;85.31;118439.88;5055503;28;19912;-29
2023/01/06 04:46:59;;;;;;;;;;;;;;;-143.48;85.33;118439.88;5055486;28;19908;-29
2023/01/06 04:49:25;;;;;;;;;;;;;;;-143.48;85.33;118439.88;5055424;28;19909;-29
2023/01/06 04:51:50;;;;;;;;;;;;;;;-143.48;85.20;118439.88;5055019;28;19908;-29
2023/01/06 04:54:15;;;;;;;;;;;;;;;-143.48;85.47;118439.88;5055076;28;19908;-29
2023/01/06 04:56:40;;;;;;;;;;;;;;;-143.48;86.11;118439.88;5055359;28;19962;-29
2023/01/06 04:59:05;;;;;;;;;;;;;;;-143.48;86.40;118439.88;5054994;28;20252;-29
2023/01/06 05:01:31;;;;;;;;;;;;;;;-143.48;85.61;118439.88;5054876;28;19909;-30
2023/01/06 05:03:56;;;;;;;;;;;;;;;-143.48;85.74;118439.88;5054687;28;20016;-29
2023/01/06 05:06:21;;;;;;;;;;;;;;;-143.48;85.28;118439.88;5055422;28;19960;-29
2023/01/06 05:08:46;;;;;;;;;;;;;;;-143.48;85.02;118439.88;5055050;28;20334;-29
2023/01/06 05:11:16;;;;;;;;;;;;;;;-143.48;84.87;118439.88;5054722;28;19909;-30
2023/01/06 05:13:42;;;;;;;;;;;;;;;-143.48;85.02;118439.88;5055091;28;19908;-29
2023/01/06 05:16:15;;;;;;;;;;;;;;;-143.48;85.71;118439.88;5054564;28;20003;-29
2023/01/06 05:18:41;;;;;;;;;;;;;;;-143.48;86.28;118439.88;5054628;28;20356;-29
2023/01/06 05:21:06;;;;;;;;;;;;;;;-143.48;86.81;118439.88;5054847;28;19909;-29
2023/01/06 05:23:31;;;;;;;;;;;;;;;-143.48;88.35;118439.88;5054371;28;19913;-30
2023/01/06 05:25:56;;;;;;;;;;;;;;;-143.48;89.74;118439.88;5054997;28;19915;-29
2023/01/06 05:28:22;;;;;;;;;;;;;;;-143.48;90.29;118439.88;5054580;28;20318;-30
2023/01/06 05:30:47;;;;;;;;;;;;;;;-143.48;90.87;118439.88;5054241;28;19958;-30
2023/01/06 05:33:13;;;;;;;;;;;;;;;-143.48;91.27;118439.88;5054400;28;19913;-29
2023/01/06 05:35:38;;;;;;;;;;;;;;;-143.48;91.85;118439.88;5054522;28;20003;-29
2023/01/06 05:38:03;;;;;;;;;;;;;;;-143.48;91.82;118439.88;5054613;28;20275;-29
2023/01/06 05:40:29;;;;;;;;;;;;;;;-143.48;91.89;118439.88;5054496;28;20347;-29
2023/01/06 05:42:54;;;;;;;;;;;;;;;-143.48;92.07;118439.88;5054100;28;19920;-29
2023/01/06 05:45:20;;;;;;;;;;;;;;;-143.48;91.81;118439.88;5054385;28;19908;-29
2023/01/06 05:47:45;;;;;;;;;;;;;;;-143.48;91.82;118439.88;5036289;28;19970;-30
2023/01/06 05:50:11;;;;;;;;;;;;;;;-143.48;91.78;118439.88;5054387;28;19909;-29
2023/01/06 05:52:36;;;;;;;;;;;;;;;-143.48;92.51;118439.88;5053958;28;19913;-29
2023/01/06 05:55:01;;;;;;;;;;;;;;;-143.48;93.94;118439.88;5054269;28;19909;-30
2023/01/06 05:57:26;;;;;;;;;;;;;;;-143.48;95.19;118439.88;5054221;28;19909;-29
2023/01/06 05:59:51;;;;;;;;;;;;;;;-143.48;95.83;118439.88;5053919;28;19908;-29
2023/01/06 06:02:17;;;;;;;;;;;;;;;-143.48;96.07;118439.88;5053740;28;19931;-29
2023/01/06 06:04:42;;;;;;;;;;;;;;;-143.48;96.42;118439.88;5054119;28;20016;-29
2023/01/06 06:07:07;;;;;;;;;;;;;;;-143.48;96.56;118439.88;5054049;28;19909;-29
2023/01/06 06:09:32;;;;;;;;;;;;;;;-143.48;96.24;118439.88;5053935;28;19915;-29
2023/01/06 06:11:57;;;;;;;;;;;;;;;-143.48;96.32;118439.88;5053860;28;19908;-29
2023/01/06 06:14:24;;;;;;;;;;;;;;;-143.48;97.14;118439.88;5053611;28;19919;-29
2023/01/06 06:16:49;;;;;;;;;;;;;;;-143.48;97.53;118439.88;5053903;28;20003;-29
2023/01/06 06:19:14;;;;;;;;;;;;;;;-143.48;98.19;118439.88;5054416;28;20006;-29
2023/01/06 06:21:39;;;;;;;;;;;;;;;-143.48;98.13;118439.88;5054305;28;19908;-29
2023/01/06 06:24:04;;;;;;;;;;;;;;;-143.48;98.24;118439.88;5053946;28;19967;-29
2023/01/06 06:26:30;;;;;;;;;;;;;;;-143.48;98.82;118439.88;5053638;28;19932;-30
2023/01/06 06:28:58;;;;;;;;;;;;;;;-143.48;98.97;118439.88;5053837;28;19952;-29
2023/01/06 06:31:25;;;;;;;;;;;;;;;-143.48;99.33;118439.88;5053921;28;19916;-29
2023/01/06 06:33:51;;;;;;;;;;;;;;;-143.48;99.96;118439.88;5035736;28;19916;-29
2023/01/06 06:36:16;;;;;;;;;;;;;;;-143.48;99.97;118439.88;5053616;28;19955;-29
2023/01/06 06:38:43;;;;;;;;;;;;;;;-143.48;100.00;118439.88;5035618;28;20360;-29
2023/01/06 06:41:08;;;;;;;;;;;;;;;-143.48;100.00;118439.88;5056372;28;19908;-29
2023/01/06 06:43:33;;;;;;;;;;;;;;;-143.48;100.00;118439.88;5057791;28;19955;-29
2023/01/06 06:45:58;;;;;;;;;;;;;;;-143.48;100.00;118439.88;5057779;28;19909;-30
2023/01/06 06:48:24;;;;;;;;;;;;;;;-143.48;100.00;118439.88;5058080;28;20058;-30
2023/01/06 06:51:05;;;;;;;;;;;;;;;-143.48;100.00;118439.88;5057362;28;19915;-29
2023/01/06 06:53:31;;;;;;;;;;;;;;;-143.48;100.00;118439.88;5057332;28;20378;-30
2023/01/06 06:55:57;;;;;;;;;;;;;;;-143.48;100.00;118439.88;5057550;28;19909;-29
2023/01/06 06:58:22;;;;;;;;;;;;;;;-143.48;100.00;118439.88;5057562;28;19934;-29
2023/01/06 07:00:47;;;;;;;;;;;;;;;-143.48;99.71;118439.88;5057206;28;19909;-29
2023/01/06 07:03:12;;;;;;;;;;;;;;;-143.48;99.39;118439.88;5057169;28;19917;-29
2023/01/06 07:05:37;;;;;;;;;;;;;;;-143.48;99.42;118439.88;5039828;28;19909;-29
2023/01/06 07:08:03;;;;;;;;;;;;;;;-143.48;99.71;118439.88;5057614;28;19913;-29
2023/01/06 07:10:28;;;;;;;;;;;;;;;-143.48;100.00;118439.88;5057519;28;20244;-29
2023/01/06 07:12:53;;;;;;;;;;;;;;;-143.48;100.00;118439.88;5057244;28;19912;-29
2023/01/06 07:15:18;;;;;;;;;;;;;;;-143.48;100.00;118439.88;5056978;28;20429;-29
2023/01/06 07:17:43;;;;;;;;;;;;;;;-143.48;100.00;118439.88;5039719;28;19909;-29
2023/01/06 07:20:09;;;;;;;;;;;;;;;-143.48;100.00;118439.88;5039293;28;20379;-29
2023/01/06 07:22:38;;;;;;;;;;;;;;;-143.48;100.00;118439.88;5056731;28;19953;-30
2023/01/06 07:25:04;;;;;;;;;;;;;;;-143.48;100.00;118439.88;5057056;28;20003;-29
2023/01/06 07:27:29;;;;;;;;;;;;;;;-143.48;100.00;118439.88;5056985;28;19909;-30
2023/01/06 07:29:55;;;;;;;;;;;;;;;-143.48;100.00;118439.88;5056959;28;20406;-29
2023/01/06 07:32:20;;;;;;;;;;;;;;;-143.48;100.00;118439.88;5056942;28;19908;-29
2023/01/06 07:34:45;;;;;;;;;;;;;;;-143.48;100.00;118439.88;5056840;28;19908;-29
2023/01/06 07:37:10;;;;;;;;;;;;;;;-143.48;100.00;118439.88;5056541;28;19913;-29
2023/01/06 07:39:35;;;;;;;;;;;;;;;-143.48;100.00;118439.88;5056763;28;19979;-29
2023/01/06 07:42:01;;;;;;;;;;;;;;;-143.48;100.00;118439.88;5056457;28;20313;-29
2023/01/06 07:44:26;;;;;;;;;;;;;;;-143.48;99.73;118439.88;5056656;28;19912;-29
2023/01/06 07:46:51;;;;;;;;;;;;;;;-143.48;99.56;118439.88;5056362;28;19958;-30
2023/01/06 07:49:16;;;;;;;;;;;;;;;-143.48;99.45;118439.88;5056871;28;19959;-29
2023/01/06 07:51:41;;;;;;;;;;;;;;;-143.48;99.28;118439.88;5055398;28;19909;-29
2023/01/06 07:54:07;;;;;;;;;;;;;;;-143.48;99.62;118439.88;5056110;28;20355;-29
2023/01/06 07:56:32;;;;;;;;;;;;;;;-143.48;99.05;118439.88;5056109;28;19916;-29
2023/01/06 07:58:57;;;;;;;;;;;;;;;-143.48;97.99;118439.88;5056595;28;19908;-29
2023/01/06 08:01:23;;;;;;;;;;;;;;;-143.48;98.16;118439.88;5056131;28;19909;-29
2023/01/06 08:03:48;;;;;;;;;;;;;;;-143.48;97.03;118439.88;5055808;28;19928;-30
2023/01/06 08:06:13;;;;;;;;;;;;;;;-143.48;97.04;118439.88;5056166;28;20386;-30
2023/01/06 08:08:39;;;;;;;;;;;;;;;-143.48;97.40;118439.88;5055834;28;19909;-30
2023/01/06 08:11:05;;;;;;;;;;;;;;;-143.48;96.86;118439.88;5055971;28;19912;-30
2023/01/06 08:13:30;;;;;;;;;;;;;;;-143.48;96.70;118439.88;5055898;28;20374;-30
2023/01/06 08:15:55;;;;;;;;;;;;;;;-143.48;96.19;118439.88;5055243;28;20313;-34
2023/01/06 08:18:20;;;;;;;;;;;;;;;-143.48;96.05;118439.88;5055423;28;19909;-30
2023/01/06 08:20:46;;;;;;;;;;;;;;;-143.48;96.32;118439.88;5056279;28;19908;-30
2023/01/06 08:23:11;;;;;;;;;;;;;;;-143.48;95.77;118439.88;5055635;28;20283;-30
2023/01/06 08:25:36;;;;;;;;;;;;;;;-143.48;94.75;118439.88;5055910;28;19909;-30
2023/01/06 08:28:01;;;;;;;;;;;;;;;-143.48;94.33;118439.88;5055574;28;19908;-30
2023/01/06 08:30:26;;;;;;;;;;;;;;;-143.48;94.19;118439.88;5055769;28;19967;-30
2023/01/06 08:32:54;;;;;;;;;;;;;;;-143.48;93.94;118439.88;5055546;28;19942;-31
2023/01/06 08:35:20;;;;;;;;;;;;;;;-143.48;93.48;118439.88;5055755;28;19908;-30
2023/01/06 08:37:45;;;;;;;;;;;;;;;-143.48;93.90;118439.88;5056142;28;19908;-30
2023/01/06 08:40:10;;;;;;;;;;;;;;;-143.48;94.07;118439.88;5055568;28;20003;-30
2023/01/06 08:42:36;;;;;;;;;;;;;;;-143.48;93.53;118439.88;5055433;28;20355;-30
2023/01/06 08:45:01;;;;;;;;;;;;;;;-143.48;93.19;118439.88;5055263;28;19930;-30
2023/01/06 08:47:26;;;;;;;;;;;;;;;-143.48;93.24;118439.88;5055483;28;19915;-30
2023/01/06 08:49:51;;;;;;;;;;;;;;;-143.48;92.06;118439.88;5055145;28;20387;-30
2023/01/06 08:52:16;;;;;;;;;;;;;;;-143.48;91.99;118439.88;5055061;28;19915;-30
2023/01/06 08:54:41;;;;;;;;;;;;;;;-143.48;90.82;118439.88;5055694;28;19908;-30
2023/01/06 08:57:07;;;;;;;;;;;;;;;-143.48;90.63;118439.88;5055093;28;19915;-30
2023/01/06 08:59:33;;;;;;;;;;;;;;;-143.48;91.24;118439.88;5054951;28;19962;-30
2023/01/06 09:01:58;;;;;;;;;;;;;;;-143.48;91.54;118439.88;5054729;28;19908;-30
2023/01/06 09:04:23;;;;;;;;;;;;;;;-143.48;90.69;118439.88;5054680;28;19963;-30
2023/01/06 09:06:48;;;;;;;;;;;;;;;-143.48;89.73;118439.88;5055157;28;20029;-30
2023/01/06 09:09:14;;;;;;;;;;;;;;;-143.48;90.32;118439.88;5055360;28;20327;-30
2023/01/06 09:11:40;;;;;;;;;;;;;;;-143.48;89.53;118439.88;5055021;28;19916;-30
2023/01/06 09:14:07;;;;;;;;;;;;;;;-143.48;89.95;118439.88;5054943;28;19919;-30
2023/01/06 09:16:32;;;;;;;;;;;;;;;-143.48;88.91;118439.88;5054635;28;19916;-30
2023/01/06 09:18:57;;;;;;;;;;;;;;;-143.48;88.58;118439.88;5054662;28;19909;-30
2023/01/06 09:21:22;;;;;;;;;;;;;;;-143.48;88.22;118439.88;5054611;28;19908;-30
2023/01/06 09:23:48;;;;;;;;;;;;;;;-143.48;87.94;118439.88;5055331;28;19913;-30
2023/01/06 09:26:14;;;;;;;;;;;;;;;-143.48;87.82;118439.88;5054689;28;19996;-30
2023/01/06 09:28:40;;;;;;;;;;;;;;;-143.48;88.84;118439.88;5054709;28;20327;-30
2023/01/06 09:31:05;;;;;;;;;;;;;;;-143.48;87.52;118439.88;5054480;28;19940;-30
2023/01/06 09:33:30;;;;;;;;;;;;;;;-143.48;87.39;118439.88;5055135;28;19913;-28
2023/01/06 09:35:56;;;;;;;;;;;;;;;-143.48;87.21;118439.88;5054529;28;19932;-29
2023/01/06 09:38:21;;;;;;;;;;;;;;;-143.48;86.36;118439.88;5054291;28;19908;-29
2023/01/06 09:41:09;;;;;;;;;;;;;;;-143.48;87.42;118439.88;5054166;28;19908;-28
2023/01/06 09:43:52;;;;;;;;;;;;;;;-143.48;86.25;118439.88;5043114;28;19927;-28
2023/01/06 09:46:20;;;;;;;;;;;;;;;-143.48;85.74;118439.88;5036209;28;20011;-28
2023/01/06 09:48:52;;;;;;;;;;;;;;;-143.48;85.40;118439.88;5054353;28;19916;-28
2023/01/06 09:51:20;;;;;;;;;;;;;;;-143.48;83.69;118439.88;5036035;28;19909;-28
2023/01/06 09:53:49;;;;;;;;;;;;;;;-143.48;83.80;118439.88;5053021;28;19908;-28
2023/01/06 09:56:16;;;;;;;;;;;;;;;-143.48;83.64;118439.88;5054537;28;19909;-29
2023/01/06 09:58:44;;;;;;;;;;;;;;;-143.48;82.23;118439.88;5054441;28;19999;-28
2023/01/06 10:01:11;;;;;;;;;;;;;;;-143.48;82.95;118439.88;5053892;28;19915;-28
2023/01/06 10:03:37;;;;;;;;;;;;;;;-143.48;82.80;118439.88;5054151;28;20421;-28
2023/01/06 10:06:11;;;;;;;;;;;;;;;-143.48;81.21;118439.88;5053118;28;20022;-28
2023/01/06 10:08:45;;;;;;;;;;;;;;;-143.48;80.82;118439.88;5053829;28;19915;-28
2023/01/06 10:11:17;;;;;;;;;;;;;;;-143.48;80.60;118439.88;5054268;28;19915;-29
2023/01/06 10:13:52;;;;;;;;;;;;;;;-143.48;81.36;118439.88;5053784;28;19913;-29
2023/01/06 10:16:29;;;;;;;;;;;;;;;-143.48;66.07;118439.88;5053713;28;19909;-29
2023/01/06 10:19:02;;;;;;;;;;;;;;;-143.48;54.50;118439.88;5053596;28;20240;-28
2023/01/06 10:21:36;;;;;;;;;;;;;;;-143.48;50.37;118439.88;5054072;28;19959;-29
2023/01/06 10:24:08;;;;;;;;;;;;;;;-143.48;49.79;118439.88;5035644;28;20330;-29
2023/01/06 10:26:41;;;;;;;;;;;;;;;-143.48;46.98;118439.88;5054136;28;19932;-29
2023/01/06 10:29:16;;;;;;;;;;;;;;;-143.48;45.91;118439.88;5053644;28;19912;-29
2023/01/06 10:31:43;;;;;;;;;;;;;;;-143.48;44.84;118439.88;5054034;28;19908;-29
2023/01/06 10:34:15;;;;;;;;;;;;;;;-143.48;43.00;118439.88;5053557;28;19935;-29
2023/01/06 10:36:42;;;;;;;;;;;;;;;-143.48;46.24;118439.88;5054109;28;19909;-30
2023/01/06 10:39:15;;;;;;;;;;;;;;;-143.48;43.55;118439.88;5053707;28;19908;-29
2023/01/06 10:42:54;;;;;;;;;;;;;;;-143.48;45.85;118439.88;5053996;28;19962;-29
2023/01/06 10:44:41;;;;;;;;;;;;;;;-143.48;44.15;118439.88;5053217;28;19912;-29
2023/01/06 10:47:12;;;;;;;;;;;;;;;-143.48;45.84;118439.88;5053425;28;19909;-29
2023/01/06 10:49:37;;;;;;;;;;;;;;;-143.48;48.82;118439.88;5053396;28;19909;-29
2023/01/06 10:52:02;;;;;;;;;;;;;;;-143.48;48.36;118439.88;5053140;28;19943;-29
2023/01/06 10:54:32;;;;;;;;;;;;;;;-143.48;52.91;118439.88;5053372;28;19909;-29
2023/01/06 10:57:01;;;;;;;;;;;;;;;-143.48;55.33;118439.88;5053574;28;19959;-29
2023/01/06 10:59:27;;;;;;;;;;;;;;;-143.48;56.30;118439.88;5053931;28;19909;-29
2023/01/06 11:01:55;;;;;;;;;;;;;;;-143.48;60.40;118439.88;5053332;28;19915;-29
2023/01/06 11:04:20;;;;;;;;;;;;;;;-143.48;65.13;118439.88;5053026;28;19916;-29
2023/01/06 11:06:55;;;;;;;;;;;;;;;-143.48;64.67;118439.88;5053294;28;20391;-29
2023/01/06 11:09:26;;;;;;;;;;;;;;;-143.48;64.79;118439.88;5053200;28;19916;-29
2023/01/06 11:11:52;;;;;;;;;;;;;;;-143.48;65.48;118439.88;5053464;28;19908;-28
2023/01/06 11:14:19;;;;;;;;;;;;;;;-143.48;66.27;118439.88;5053197;28;19931;-29
2023/01/06 11:16:53;;;;;;;;;;;;;;;-143.48;66.99;118439.88;5053383;28;19912;-29
2023/01/06 11:19:24;;;;;;;;;;;;;;;-143.48;68.16;118439.88;5053144;28;19908;-28
2023/01/06 11:21:49;;;;;;;;;;;;;;;-143.48;67.09;118439.88;5053063;28;20334;-28
2023/01/06 11:24:17;;;;;;;;;;;;;;;-143.48;67.36;118439.88;5052915;28;20020;-29
2023/01/06 11:26:44;;;;;;;;;;;;;;;-143.48;68.49;118439.88;5053258;28;20400;-29
2023/01/06 11:29:16;;;;;;;;;;;;;;;-143.48;68.03;118439.88;5056695;28;19908;-28
2023/01/06 11:31:45;;;;;;;;;;;;;;;-143.48;68.00;118439.88;5056716;28;19912;-29
2023/01/06 11:34:18;;;;;;;;;;;;;;;-143.48;67.87;118439.88;5057052;28;19909;-29
2023/01/06 11:36:45;;;;;;;;;;;;;;;-143.48;68.40;118439.88;5056540;28;19912;-28
2023/01/06 11:39:25;;;;;;;;;;;;;;;-143.48;68.69;118439.88;5056769;28;20377;-29
2023/01/06 11:41:51;;;;;;;;;;;;;;;-143.48;68.72;118439.88;5056269;28;19912;-29
2023/01/06 11:44:24;;;;;;;;;;;;;;;-143.48;69.43;118439.88;5056201;28;19919;-29
2023/01/06 11:46:51;;;;;;;;;;;;;;;-143.48;69.99;118439.88;5056502;28;19940;-29
2023/01/06 11:49:24;;;;;;;;;;;;;;;-143.48;70.35;118439.88;5056091;28;20367;-28
2023/01/06 11:51:49;;;;;;;;;;;;;;;-143.48;70.35;118439.88;5056141;28;19909;-28
2023/01/06 11:54:23;;;;;;;;;;;;;;;-143.48;71.21;118439.88;5056312;28;19909;-28
2023/01/06 11:56:56;;;;;;;;;;;;;;;-143.48;70.92;118439.88;5056382;28;20275;-29
2023/01/06 11:59:23;;;;;;;;;;;;;;;-143.48;71.44;118439.88;5056130;28;20371;-28
2023/01/06 12:01:59;;;;;;;;;;;;;;;-143.48;71.71;118439.88;5038140;28;19909;-29
2023/01/06 12:04:35;;;;;;;;;;;;;;;-143.48;71.24;118439.88;5055702;28;19927;-29
2023/01/06 12:07:18;;;;;;;;;;;;;;;-143.48;70.33;118439.88;5055919;28;19915;-29
2023/01/06 12:09:45;;;;;;;;;;;;;;;-143.48;70.42;118439.88;5055877;28;19915;-28
2023/01/06 12:12:12;;;;;;;;;;;;;;;-143.48;71.18;118439.88;5056430;28;19913;-29
2023/01/06 12:14:38;;;;;;;;;;;;;;;-143.48;70.33;118439.88;5037993;28;20326;-29
2023/01/06 12:17:23;;;;;;;;;;;;;;;-143.48;68.99;118439.88;5055698;28;19909;-29
2023/01/06 12:19:48;;;;;;;;;;;;;;;-143.48;64.06;118439.88;5056182;28;20401;-33
2023/01/06 12:22:32;;;;;;;;;;;;;;;-143.48;65.52;118439.88;5054531;28;19941;-29